sensor_id;sensor_type;location;lat;lon;timestamp;temperature;humidity
34766;DHT22;20984;43.508;1.504;2022-07-15T00:00:31;25.40;84.70
34766;DHT22;20984;43.508;1.504;2022-07-15T00:02:58;25.40;84.20
34766;DHT22;20984;43.508;1.504;2022-07-15T00:05:25;25.30;83.20
34766;DHT22;20984;43.508;1.504;2022-07-15T00:07:51;25.30;83.00
34766;DHT22;20984;43.508;1.504;2022-07-15T00:10:17;25.30;82.70
34766;DHT22;20984;43.508;1.504;2022-07-15T00:13:00;25.40;83.40
34766;DHT22;20984;43.508;1.504;2022-07-15T00:15:31;25.40;82.80
34766;DHT22;20984;43.508;1.504;2022-07-15T00:17:58;25.40;82.40
34766;DHT22;20984;43.508;1.504;2022-07-15T00:20:27;25.50;81.50
34766;DHT22;20984;43.508;1.504;2022-07-15T00:23:02;25.60;82.70
34766;DHT22;20984;43.508;1.504;2022-07-15T00:25:28;25.60;81.90
34766;DHT22;20984;43.508;1.504;2022-07-15T00:28:00;25.50;82.40
34766;DHT22;20984;43.508;1.504;2022-07-15T00:30:37;25.50;83.20
34766;DHT22;20984;43.508;1.504;2022-07-15T00:33:03;25.40;82.40
34766;DHT22;20984;43.508;1.504;2022-07-15T00:35:30;25.40;83.30
34766;DHT22;20984;43.508;1.504;2022-07-15T00:37:56;25.30;83.70
34766;DHT22;20984;43.508;1.504;2022-07-15T00:40:22;25.30;83.90
34766;DHT22;20984;43.508;1.504;2022-07-15T00:42:49;25.30;82.30
34766;DHT22;20984;43.508;1.504;2022-07-15T00:45:24;25.20;83.10
34766;DHT22;20984;43.508;1.504;2022-07-15T00:47:54;25.20;82.70
34766;DHT22;20984;43.508;1.504;2022-07-15T00:50:21;25.20;83.60
34766;DHT22;20984;43.508;1.504;2022-07-15T00:53:18;25.30;82.90
34766;DHT22;20984;43.508;1.504;2022-07-15T00:55:45;25.30;82.10
34766;DHT22;20984;43.508;1.504;2022-07-15T00:58:18;25.40;82.90
34766;DHT22;20984;43.508;1.504;2022-07-15T01:00:47;25.40;82.40
34766;DHT22;20984;43.508;1.504;2022-07-15T01:03:15;25.40;82.90
34766;DHT22;20984;43.508;1.504;2022-07-15T01:05:41;25.30;82.60
34766;DHT22;20984;43.508;1.504;2022-07-15T01:08:07;25.30;82.50
34766;DHT22;20984;43.508;1.504;2022-07-15T01:10:34;25.30;82.50
34766;DHT22;20984;43.508;1.504;2022-07-15T01:13:02;25.30;82.80
34766;DHT22;20984;43.508;1.504;2022-07-15T01:15:29;25.30;82.70
34766;DHT22;20984;43.508;1.504;2022-07-15T01:17:59;25.30;82.90
34766;DHT22;20984;43.508;1.504;2022-07-15T01:20:26;25.30;83.30
34766;DHT22;20984;43.508;1.504;2022-07-15T01:22:51;25.20;83.30
34766;DHT22;20984;43.508;1.504;2022-07-15T01:25:17;25.20;83.70
34766;DHT22;20984;43.508;1.504;2022-07-15T01:27:43;25.10;84.30
34766;DHT22;20984;43.508;1.504;2022-07-15T01:30:09;25.10;85.00
34766;DHT22;20984;43.508;1.504;2022-07-15T01:32:37;25.00;85.60
34766;DHT22;20984;43.508;1.504;2022-07-15T01:35:03;24.90;85.80
34766;DHT22;20984;43.508;1.504;2022-07-15T01:37:29;24.80;85.90
34766;DHT22;20984;43.508;1.504;2022-07-15T01:39:55;24.80;86.60
34766;DHT22;20984;43.508;1.504;2022-07-15T01:42:21;24.70;86.80
34766;DHT22;20984;43.508;1.504;2022-07-15T01:44:46;24.70;87.10
34766;DHT22;20984;43.508;1.504;2022-07-15T01:47:13;24.70;88.40
34766;DHT22;20984;43.508;1.504;2022-07-15T01:49:39;24.60;88.70
34766;DHT22;20984;43.508;1.504;2022-07-15T01:52:05;24.50;88.80
34766;DHT22;20984;43.508;1.504;2022-07-15T01:54:35;24.50;88.90
34766;DHT22;20984;43.508;1.504;2022-07-15T01:57:01;24.40;89.90
34766;DHT22;20984;43.508;1.504;2022-07-15T01:59:27;24.40;90.00
34766;DHT22;20984;43.508;1.504;2022-07-15T02:01:56;24.40;90.10
34766;DHT22;20984;43.508;1.504;2022-07-15T02:04:23;24.40;90.10
34766;DHT22;20984;43.508;1.504;2022-07-15T02:06:49;24.40;90.50
34766;DHT22;20984;43.508;1.504;2022-07-15T02:09:16;24.40;90.60
34766;DHT22;20984;43.508;1.504;2022-07-15T02:11:42;24.40;90.80
34766;DHT22;20984;43.508;1.504;2022-07-15T02:14:08;24.40;90.90
34766;DHT22;20984;43.508;1.504;2022-07-15T02:16:34;24.40;90.90
34766;DHT22;20984;43.508;1.504;2022-07-15T02:19:01;24.30;91.20
34766;DHT22;20984;43.508;1.504;2022-07-15T02:21:27;24.30;91.40
34766;DHT22;20984;43.508;1.504;2022-07-15T02:23:53;24.30;91.60
34766;DHT22;20984;43.508;1.504;2022-07-15T02:26:20;24.30;91.70
34766;DHT22;20984;43.508;1.504;2022-07-15T02:28:46;24.30;91.90
34766;DHT22;20984;43.508;1.504;2022-07-15T02:31:12;24.20;92.10
34766;DHT22;20984;43.508;1.504;2022-07-15T02:33:39;24.20;92.20
34766;DHT22;20984;43.508;1.504;2022-07-15T02:36:05;24.20;92.30
34766;DHT22;20984;43.508;1.504;2022-07-15T02:38:31;24.10;92.80
34766;DHT22;20984;43.508;1.504;2022-07-15T02:40:57;24.10;92.50
34766;DHT22;20984;43.508;1.504;2022-07-15T02:43:23;24.10;92.70
34766;DHT22;20984;43.508;1.504;2022-07-15T02:45:49;24.10;92.90
34766;DHT22;20984;43.508;1.504;2022-07-15T02:48:15;24.10;93.10
34766;DHT22;20984;43.508;1.504;2022-07-15T02:50:41;24.00;93.20
34766;DHT22;20984;43.508;1.504;2022-07-15T02:53:08;24.00;93.40
34766;DHT22;20984;43.508;1.504;2022-07-15T02:55:34;23.90;93.40
34766;DHT22;20984;43.508;1.504;2022-07-15T02:58:00;23.90;93.60
34766;DHT22;20984;43.508;1.504;2022-07-15T03:00:26;23.90;93.80
34766;DHT22;20984;43.508;1.504;2022-07-15T03:02:51;23.90;94.00
34766;DHT22;20984;43.508;1.504;2022-07-15T03:05:18;23.90;94.20
34766;DHT22;20984;43.508;1.504;2022-07-15T03:07:44;23.80;94.20
34766;DHT22;20984;43.508;1.504;2022-07-15T03:10:11;23.80;94.50
34766;DHT22;20984;43.508;1.504;2022-07-15T03:12:37;23.80;94.70
34766;DHT22;20984;43.508;1.504;2022-07-15T03:15:03;23.80;94.90
34766;DHT22;20984;43.508;1.504;2022-07-15T03:17:30;23.80;95.00
34766;DHT22;20984;43.508;1.504;2022-07-15T03:19:55;23.70;95.30
34766;DHT22;20984;43.508;1.504;2022-07-15T03:22:22;23.70;95.50
34766;DHT22;20984;43.508;1.504;2022-07-15T03:24:48;23.70;95.80
34766;DHT22;20984;43.508;1.504;2022-07-15T03:27:15;23.60;96.00
34766;DHT22;20984;43.508;1.504;2022-07-15T03:29:42;23.60;96.20
34766;DHT22;20984;43.508;1.504;2022-07-15T03:32:08;23.60;96.40
34766;DHT22;20984;43.508;1.504;2022-07-15T03:34:34;23.60;96.60
34766;DHT22;20984;43.508;1.504;2022-07-15T03:37:00;23.60;96.90
34766;DHT22;20984;43.508;1.504;2022-07-15T03:39:26;23.50;96.90
34766;DHT22;20984;43.508;1.504;2022-07-15T03:41:52;23.50;97.00
34766;DHT22;20984;43.508;1.504;2022-07-15T03:44:18;23.50;97.20
34766;DHT22;20984;43.508;1.504;2022-07-15T03:46:44;23.50;97.50
34766;DHT22;20984;43.508;1.504;2022-07-15T03:49:12;23.50;97.50
34766;DHT22;20984;43.508;1.504;2022-07-15T03:51:38;23.50;97.60
34766;DHT22;20984;43.508;1.504;2022-07-15T03:54:04;23.50;97.80
34766;DHT22;20984;43.508;1.504;2022-07-15T03:56:31;23.50;97.90
34766;DHT22;20984;43.508;1.504;2022-07-15T03:58:57;23.40;98.00
34766;DHT22;20984;43.508;1.504;2022-07-15T04:01:23;23.40;98.00
34766;DHT22;20984;43.508;1.504;2022-07-15T04:03:50;23.40;98.40
34766;DHT22;20984;43.508;1.504;2022-07-15T04:06:16;23.40;98.20
34766;DHT22;20984;43.508;1.504;2022-07-15T04:08:43;23.40;98.50
34766;DHT22;20984;43.508;1.504;2022-07-15T04:11:10;23.40;98.60
34766;DHT22;20984;43.508;1.504;2022-07-15T04:13:37;23.30;98.60
34766;DHT22;20984;43.508;1.504;2022-07-15T04:16:03;23.30;98.60
34766;DHT22;20984;43.508;1.504;2022-07-15T04:18:30;23.20;98.90
34766;DHT22;20984;43.508;1.504;2022-07-15T04:20:55;23.20;99.00
34766;DHT22;20984;43.508;1.504;2022-07-15T04:23:21;23.20;99.00
34766;DHT22;20984;43.508;1.504;2022-07-15T04:25:48;23.10;99.40
34766;DHT22;20984;43.508;1.504;2022-07-15T04:28:18;23.10;99.20
34766;DHT22;20984;43.508;1.504;2022-07-15T04:30:44;23.10;99.10
34766;DHT22;20984;43.508;1.504;2022-07-15T04:33:10;23.10;99.30
34766;DHT22;20984;43.508;1.504;2022-07-15T04:35:35;23.20;99.20
34766;DHT22;20984;43.508;1.504;2022-07-15T04:38:02;23.10;99.00
34766;DHT22;20984;43.508;1.504;2022-07-15T04:40:28;23.20;99.30
34766;DHT22;20984;43.508;1.504;2022-07-15T04:42:54;23.10;99.30
34766;DHT22;20984;43.508;1.504;2022-07-15T04:45:20;23.20;99.40
34766;DHT22;20984;43.508;1.504;2022-07-15T04:47:46;23.20;99.50
34766;DHT22;20984;43.508;1.504;2022-07-15T04:50:13;23.10;99.40
34766;DHT22;20984;43.508;1.504;2022-07-15T04:52:57;23.10;99.70
34766;DHT22;20984;43.508;1.504;2022-07-15T04:55:23;23.10;99.60
34766;DHT22;20984;43.508;1.504;2022-07-15T04:57:49;23.10;99.60
34766;DHT22;20984;43.508;1.504;2022-07-15T05:00:15;23.10;99.50
34766;DHT22;20984;43.508;1.504;2022-07-15T05:02:41;23.10;99.50
34766;DHT22;20984;43.508;1.504;2022-07-15T05:05:07;23.10;99.50
34766;DHT22;20984;43.508;1.504;2022-07-15T05:07:33;23.10;99.50
34766;DHT22;20984;43.508;1.504;2022-07-15T05:09:59;23.20;99.40
34766;DHT22;20984;43.508;1.504;2022-07-15T05:12:25;23.20;99.30
34766;DHT22;20984;43.508;1.504;2022-07-15T05:14:50;23.20;99.30
34766;DHT22;20984;43.508;1.504;2022-07-15T05:17:16;23.30;99.20
34766;DHT22;20984;43.508;1.504;2022-07-15T05:19:42;23.30;99.20
34766;DHT22;20984;43.508;1.504;2022-07-15T05:22:08;23.30;99.20
34766;DHT22;20984;43.508;1.504;2022-07-15T05:24:34;23.40;99.10
34766;DHT22;20984;43.508;1.504;2022-07-15T05:27:00;23.40;99.10
34766;DHT22;20984;43.508;1.504;2022-07-15T05:29:26;23.40;99.10
34766;DHT22;20984;43.508;1.504;2022-07-15T05:31:52;23.40;98.90
34766;DHT22;20984;43.508;1.504;2022-07-15T05:34:18;23.50;98.90
34766;DHT22;20984;43.508;1.504;2022-07-15T05:36:44;23.50;98.80
34766;DHT22;20984;43.508;1.504;2022-07-15T05:39:11;23.50;99.20
34766;DHT22;20984;43.508;1.504;2022-07-15T05:41:37;23.50;98.80
34766;DHT22;20984;43.508;1.504;2022-07-15T05:44:03;23.60;98.70
34766;DHT22;20984;43.508;1.504;2022-07-15T05:46:29;23.60;98.70
34766;DHT22;20984;43.508;1.504;2022-07-15T05:48:54;23.60;98.60
34766;DHT22;20984;43.508;1.504;2022-07-15T05:51:20;23.60;98.60
34766;DHT22;20984;43.508;1.504;2022-07-15T05:53:46;23.60;98.70
34766;DHT22;20984;43.508;1.504;2022-07-15T05:56:12;23.70;98.70
34766;DHT22;20984;43.508;1.504;2022-07-15T05:58:38;23.70;98.70
34766;DHT22;20984;43.508;1.504;2022-07-15T06:01:04;23.70;98.80
34766;DHT22;20984;43.508;1.504;2022-07-15T06:03:30;23.80;98.60
34766;DHT22;20984;43.508;1.504;2022-07-15T06:05:56;23.80;98.50
34766;DHT22;20984;43.508;1.504;2022-07-15T06:08:22;23.90;98.50
34766;DHT22;20984;43.508;1.504;2022-07-15T06:10:48;23.90;98.20
34766;DHT22;20984;43.508;1.504;2022-07-15T06:13:14;24.00;98.20
34766;DHT22;20984;43.508;1.504;2022-07-15T06:15:40;24.00;98.10
34766;DHT22;20984;43.508;1.504;2022-07-15T06:18:06;23.90;98.10
34766;DHT22;20984;43.508;1.504;2022-07-15T06:20:33;23.90;98.10
34766;DHT22;20984;43.508;1.504;2022-07-15T06:22:59;24.00;98.20
34766;DHT22;20984;43.508;1.504;2022-07-15T06:25:25;24.10;98.10
34766;DHT22;20984;43.508;1.504;2022-07-15T06:27:51;24.10;97.90
34766;DHT22;20984;43.508;1.504;2022-07-15T06:30:17;24.20;97.80
34766;DHT22;20984;43.508;1.504;2022-07-15T06:32:43;24.20;97.60
34766;DHT22;20984;43.508;1.504;2022-07-15T06:35:09;24.20;97.70
34766;DHT22;20984;43.508;1.504;2022-07-15T06:37:36;24.30;97.60
34766;DHT22;20984;43.508;1.504;2022-07-15T06:40:02;24.30;97.70
34766;DHT22;20984;43.508;1.504;2022-07-15T06:42:28;24.40;97.30
34766;DHT22;20984;43.508;1.504;2022-07-15T06:44:54;24.40;97.20
34766;DHT22;20984;43.508;1.504;2022-07-15T06:47:20;24.50;97.40
34766;DHT22;20984;43.508;1.504;2022-07-15T06:49:46;24.60;97.10
34766;DHT22;20984;43.508;1.504;2022-07-15T06:52:14;24.60;97.30
34766;DHT22;20984;43.508;1.504;2022-07-15T06:54:40;24.60;97.00
34766;DHT22;20984;43.508;1.504;2022-07-15T06:57:06;24.60;97.30
34766;DHT22;20984;43.508;1.504;2022-07-15T06:59:32;24.70;97.20
34766;DHT22;20984;43.508;1.504;2022-07-15T07:01:58;24.80;97.30
34766;DHT22;20984;43.508;1.504;2022-07-15T07:04:24;24.80;97.10
34766;DHT22;20984;43.508;1.504;2022-07-15T07:06:50;24.90;97.00
34766;DHT22;20984;43.508;1.504;2022-07-15T07:09:16;24.90;97.00
34766;DHT22;20984;43.508;1.504;2022-07-15T07:11:41;24.90;96.80
34766;DHT22;20984;43.508;1.504;2022-07-15T07:14:07;25.00;96.90
34766;DHT22;20984;43.508;1.504;2022-07-15T07:16:33;25.10;97.00
34766;DHT22;20984;43.508;1.504;2022-07-15T07:18:59;25.20;96.70
34766;DHT22;20984;43.508;1.504;2022-07-15T07:21:26;25.30;96.10
34766;DHT22;20984;43.508;1.504;2022-07-15T07:23:52;25.30;96.60
34766;DHT22;20984;43.508;1.504;2022-07-15T07:26:18;25.40;96.50
34766;DHT22;20984;43.508;1.504;2022-07-15T07:28:45;25.50;96.10
34766;DHT22;20984;43.508;1.504;2022-07-15T07:31:13;25.60;95.80
34766;DHT22;20984;43.508;1.504;2022-07-15T07:33:39;25.70;96.10
34766;DHT22;20984;43.508;1.504;2022-07-15T07:36:06;25.80;96.00
34766;DHT22;20984;43.508;1.504;2022-07-15T07:38:33;25.90;95.50
34766;DHT22;20984;43.508;1.504;2022-07-15T07:41:00;26.00;95.30
34766;DHT22;20984;43.508;1.504;2022-07-15T07:43:26;26.00;94.90
34766;DHT22;20984;43.508;1.504;2022-07-15T07:45:53;26.10;94.40
34766;DHT22;20984;43.508;1.504;2022-07-15T07:48:19;26.10;94.30
34766;DHT22;20984;43.508;1.504;2022-07-15T07:50:46;26.30;93.90
34766;DHT22;20984;43.508;1.504;2022-07-15T07:53:12;26.30;93.70
34766;DHT22;20984;43.508;1.504;2022-07-15T07:55:38;26.40;92.90
34766;DHT22;20984;43.508;1.504;2022-07-15T07:58:05;26.30;93.40
34766;DHT22;20984;43.508;1.504;2022-07-15T08:00:32;26.50;93.30
34766;DHT22;20984;43.508;1.504;2022-07-15T08:02:59;26.50;92.70
34766;DHT22;20984;43.508;1.504;2022-07-15T08:05:26;26.50;92.50
34766;DHT22;20984;43.508;1.504;2022-07-15T08:08:25;26.60;92.50
34766;DHT22;20984;43.508;1.504;2022-07-15T08:10:54;26.60;92.50
34766;DHT22;20984;43.508;1.504;2022-07-15T08:13:22;26.60;92.10
34766;DHT22;20984;43.508;1.504;2022-07-15T08:15:49;26.60;92.30
34766;DHT22;20984;43.508;1.504;2022-07-15T08:18:15;26.70;92.00
34766;DHT22;20984;43.508;1.504;2022-07-15T08:20:41;26.70;91.80
34766;DHT22;20984;43.508;1.504;2022-07-15T08:23:07;26.90;91.80
34766;DHT22;20984;43.508;1.504;2022-07-15T08:25:35;27.00;91.50
34766;DHT22;20984;43.508;1.504;2022-07-15T08:28:02;27.10;91.30
34766;DHT22;20984;43.508;1.504;2022-07-15T08:30:30;27.30;91.40
34766;DHT22;20984;43.508;1.504;2022-07-15T08:32:56;27.40;91.10
34766;DHT22;20984;43.508;1.504;2022-07-15T08:35:23;27.40;91.40
34766;DHT22;20984;43.508;1.504;2022-07-15T08:37:49;27.60;91.10
34766;DHT22;20984;43.508;1.504;2022-07-15T08:40:16;27.60;90.70
34766;DHT22;20984;43.508;1.504;2022-07-15T08:42:42;27.70;90.50
34766;DHT22;20984;43.508;1.504;2022-07-15T08:45:12;27.70;89.40
34766;DHT22;20984;43.508;1.504;2022-07-15T08:47:41;27.70;89.90
34766;DHT22;20984;43.508;1.504;2022-07-15T08:50:12;27.80;89.90
34766;DHT22;20984;43.508;1.504;2022-07-15T08:52:38;27.80;89.60
34766;DHT22;20984;43.508;1.504;2022-07-15T08:55:08;27.80;90.00
34766;DHT22;20984;43.508;1.504;2022-07-15T08:57:34;27.90;89.30
34766;DHT22;20984;43.508;1.504;2022-07-15T09:00:00;28.10;90.00
34766;DHT22;20984;43.508;1.504;2022-07-15T09:02:26;28.10;89.20
34766;DHT22;20984;43.508;1.504;2022-07-15T09:08:08;28.30;90.20
34766;DHT22;20984;43.508;1.504;2022-07-15T09:13:33;28.50;88.30
34766;DHT22;20984;43.508;1.504;2022-07-15T09:16:02;28.60;88.30
34766;DHT22;20984;43.508;1.504;2022-07-15T09:18:30;28.60;86.90
34766;DHT22;20984;43.508;1.504;2022-07-15T09:20:58;28.50;87.80
34766;DHT22;20984;43.508;1.504;2022-07-15T09:23:26;28.70;87.80
34766;DHT22;20984;43.508;1.504;2022-07-15T09:26:33;28.80;86.30
34766;DHT22;20984;43.508;1.504;2022-07-15T09:29:03;28.80;85.70
34766;DHT22;20984;43.508;1.504;2022-07-15T09:31:55;28.90;86.30
34766;DHT22;20984;43.508;1.504;2022-07-15T09:34:59;29.10;86.20
34766;DHT22;20984;43.508;1.504;2022-07-15T09:37:26;29.30;86.60
34766;DHT22;20984;43.508;1.504;2022-07-15T09:39:56;29.40;85.30
34766;DHT22;20984;43.508;1.504;2022-07-15T09:42:23;29.50;84.10
34766;DHT22;20984;43.508;1.504;2022-07-15T09:44:49;29.40;84.50
34766;DHT22;20984;43.508;1.504;2022-07-15T09:47:20;29.50;86.20
34766;DHT22;20984;43.508;1.504;2022-07-15T09:49:48;29.70;83.80
34766;DHT22;20984;43.508;1.504;2022-07-15T09:52:14;29.70;82.50
34766;DHT22;20984;43.508;1.504;2022-07-15T09:54:43;29.70;82.80
34766;DHT22;20984;43.508;1.504;2022-07-15T09:57:11;29.70;83.50
34766;DHT22;20984;43.508;1.504;2022-07-15T09:59:40;29.80;82.90
34766;DHT22;20984;43.508;1.504;2022-07-15T10:02:06;29.90;83.00
34766;DHT22;20984;43.508;1.504;2022-07-15T10:04:32;29.90;81.00
34766;DHT22;20984;43.508;1.504;2022-07-15T10:06:59;30.00;80.90
34766;DHT22;20984;43.508;1.504;2022-07-15T10:09:27;30.10;80.60
34766;DHT22;20984;43.508;1.504;2022-07-15T10:12:09;30.20;80.90
34766;DHT22;20984;43.508;1.504;2022-07-15T10:20:47;30.30;79.00
34766;DHT22;20984;43.508;1.504;2022-07-15T10:29:29;30.90;77.90
34766;DHT22;20984;43.508;1.504;2022-07-15T10:31:57;30.90;78.20
34766;DHT22;20984;43.508;1.504;2022-07-15T10:34:28;30.90;76.50
34766;DHT22;20984;43.508;1.504;2022-07-15T10:36:56;31.00;78.00
34766;DHT22;20984;43.508;1.504;2022-07-15T10:39:49;31.10;77.50
34766;DHT22;20984;43.508;1.504;2022-07-15T10:42:16;31.20;76.70
34766;DHT22;20984;43.508;1.504;2022-07-15T10:45:03;31.20;77.00
34766;DHT22;20984;43.508;1.504;2022-07-15T10:47:31;31.30;75.50
34766;DHT22;20984;43.508;1.504;2022-07-15T10:49:57;31.30;73.00
34766;DHT22;20984;43.508;1.504;2022-07-15T11:00:32;31.70;74.50
34766;DHT22;20984;43.508;1.504;2022-07-15T11:03:12;31.80;74.10
34766;DHT22;20984;43.508;1.504;2022-07-15T11:13:41;31.90;71.30
34766;DHT22;20984;43.508;1.504;2022-07-15T11:16:11;32.00;70.80
34766;DHT22;20984;43.508;1.504;2022-07-15T11:18:49;32.00;71.30
34766;DHT22;20984;43.508;1.504;2022-07-15T11:21:16;32.10;70.50
34766;DHT22;20984;43.508;1.504;2022-07-15T11:23:46;32.30;70.50
34766;DHT22;20984;43.508;1.504;2022-07-15T11:26:12;32.40;65.70
34766;DHT22;20984;43.508;1.504;2022-07-15T11:28:38;32.40;68.90
34766;DHT22;20984;43.508;1.504;2022-07-15T11:31:04;32.50;68.40
34766;DHT22;20984;43.508;1.504;2022-07-15T11:33:30;32.60;68.00
34766;DHT22;20984;43.508;1.504;2022-07-15T11:35:57;32.50;68.10
34766;DHT22;20984;43.508;1.504;2022-07-15T11:38:25;32.60;67.80
34766;DHT22;20984;43.508;1.504;2022-07-15T11:41:03;32.70;66.40
34766;DHT22;20984;43.508;1.504;2022-07-15T11:44:06;33.00;65.00
34766;DHT22;20984;43.508;1.504;2022-07-15T11:46:51;32.90;59.50
34766;DHT22;20984;43.508;1.504;2022-07-15T11:49:31;33.00;64.80
34766;DHT22;20984;43.508;1.504;2022-07-15T11:51:58;33.20;63.80
34766;DHT22;20984;43.508;1.504;2022-07-15T11:54:24;33.20;59.90
34766;DHT22;20984;43.508;1.504;2022-07-15T11:57:00;33.00;60.50
34766;DHT22;20984;43.508;1.504;2022-07-15T11:59:26;32.90;59.60
34766;DHT22;20984;43.508;1.504;2022-07-15T12:02:09;32.90;60.60
34766;DHT22;20984;43.508;1.504;2022-07-15T12:04:35;33.10;60.50
34766;DHT22;20984;43.508;1.504;2022-07-15T12:07:02;33.10;59.00
34766;DHT22;20984;43.508;1.504;2022-07-15T12:09:49;33.20;59.30
34766;DHT22;20984;43.508;1.504;2022-07-15T12:12:17;33.40;58.90
34766;DHT22;20984;43.508;1.504;2022-07-15T12:14:47;33.50;60.00
34766;DHT22;20984;43.508;1.504;2022-07-15T12:17:14;33.70;58.60
34766;DHT22;20984;43.508;1.504;2022-07-15T12:19:46;33.70;57.00
34766;DHT22;20984;43.508;1.504;2022-07-15T12:22:13;33.80;58.70
34766;DHT22;20984;43.508;1.504;2022-07-15T12:24:41;33.90;57.90
34766;DHT22;20984;43.508;1.504;2022-07-15T12:27:08;34.10;59.40
34766;DHT22;20984;43.508;1.504;2022-07-15T12:29:34;34.20;56.20
34766;DHT22;20984;43.508;1.504;2022-07-15T12:32:04;34.10;55.00
34766;DHT22;20984;43.508;1.504;2022-07-15T12:34:50;34.10;55.70
34766;DHT22;20984;43.508;1.504;2022-07-15T12:37:25;34.10;53.60
34766;DHT22;20984;43.508;1.504;2022-07-15T12:40:00;34.20;55.10
34766;DHT22;20984;43.508;1.504;2022-07-15T12:42:29;34.30;53.60
34766;DHT22;20984;43.508;1.504;2022-07-15T12:47:55;34.10;53.20
34766;DHT22;20984;43.508;1.504;2022-07-15T12:50:21;34.00;53.50
34766;DHT22;20984;43.508;1.504;2022-07-15T12:52:47;34.00;54.20
34766;DHT22;20984;43.508;1.504;2022-07-15T12:55:43;34.20;54.40
34766;DHT22;20984;43.508;1.504;2022-07-15T12:58:12;34.40;53.50
34766;DHT22;20984;43.508;1.504;2022-07-15T13:00:39;34.60;52.80
34766;DHT22;20984;43.508;1.504;2022-07-15T13:03:11;34.70;52.60
34766;DHT22;20984;43.508;1.504;2022-07-15T13:05:45;34.90;52.90
34766;DHT22;20984;43.508;1.504;2022-07-15T13:08:16;35.10;51.80
34766;DHT22;20984;43.508;1.504;2022-07-15T13:10:47;35.10;51.70
34766;DHT22;20984;43.508;1.504;2022-07-15T13:13:15;35.00;50.60
34766;DHT22;20984;43.508;1.504;2022-07-15T13:15:42;35.10;52.00
34766;DHT22;20984;43.508;1.504;2022-07-15T13:18:08;34.90;50.90
34766;DHT22;20984;43.508;1.504;2022-07-15T13:20:35;34.90;51.40
34766;DHT22;20984;43.508;1.504;2022-07-15T13:23:01;35.30;51.50
34766;DHT22;20984;43.508;1.504;2022-07-15T13:25:29;35.40;50.90
34766;DHT22;20984;43.508;1.504;2022-07-15T13:27:55;35.50;51.00
34766;DHT22;20984;43.508;1.504;2022-07-15T13:30:21;35.60;51.40
34766;DHT22;20984;43.508;1.504;2022-07-15T13:32:46;35.40;51.80
34766;DHT22;20984;43.508;1.504;2022-07-15T13:35:13;35.30;51.70
34766;DHT22;20984;43.508;1.504;2022-07-15T13:37:40;35.30;52.40
34766;DHT22;20984;43.508;1.504;2022-07-15T13:40:08;35.50;52.60
34766;DHT22;20984;43.508;1.504;2022-07-15T13:42:35;35.80;51.30
34766;DHT22;20984;43.508;1.504;2022-07-15T13:45:01;35.70;50.30
34766;DHT22;20984;43.508;1.504;2022-07-15T13:47:27;35.90;50.60
34766;DHT22;20984;43.508;1.504;2022-07-15T13:49:53;36.10;49.80
34766;DHT22;20984;43.508;1.504;2022-07-15T13:52:46;36.40;50.40
34766;DHT22;20984;43.508;1.504;2022-07-15T13:55:13;36.30;49.20
34766;DHT22;20984;43.508;1.504;2022-07-15T13:57:39;36.30;49.40
34766;DHT22;20984;43.508;1.504;2022-07-15T14:00:07;36.50;50.80
34766;DHT22;20984;43.508;1.504;2022-07-15T14:02:34;36.60;51.00
34766;DHT22;20984;43.508;1.504;2022-07-15T14:05:00;36.90;50.70
34766;DHT22;20984;43.508;1.504;2022-07-15T14:07:26;37.00;48.90
34766;DHT22;20984;43.508;1.504;2022-07-15T14:09:52;37.20;49.10
34766;DHT22;20984;43.508;1.504;2022-07-15T14:12:18;37.10;47.50
34766;DHT22;20984;43.508;1.504;2022-07-15T14:14:44;36.80;47.00
34766;DHT22;20984;43.508;1.504;2022-07-15T14:17:10;36.80;49.20
34766;DHT22;20984;43.508;1.504;2022-07-15T14:19:35;37.00;49.00
34766;DHT22;20984;43.508;1.504;2022-07-15T14:22:01;37.00;48.90
34766;DHT22;20984;43.508;1.504;2022-07-15T14:24:27;36.90;47.60
34766;DHT22;20984;43.508;1.504;2022-07-15T14:26:53;37.00;49.10
34766;DHT22;20984;43.508;1.504;2022-07-15T14:29:19;37.20;49.00
34766;DHT22;20984;43.508;1.504;2022-07-15T14:31:45;37.40;48.40
34766;DHT22;20984;43.508;1.504;2022-07-15T14:34:11;37.60;48.90
34766;DHT22;20984;43.508;1.504;2022-07-15T14:36:37;38.00;47.40
34766;DHT22;20984;43.508;1.504;2022-07-15T14:39:03;38.60;46.20
34766;DHT22;20984;43.508;1.504;2022-07-15T14:41:30;39.10;45.50
34766;DHT22;20984;43.508;1.504;2022-07-15T14:43:56;39.60;45.30
34766;DHT22;20984;43.508;1.504;2022-07-15T14:46:22;40.80;44.60
34766;DHT22;20984;43.508;1.504;2022-07-15T14:48:47;41.10;42.80
34766;DHT22;20984;43.508;1.504;2022-07-15T14:51:13;40.40;41.50
34766;DHT22;20984;43.508;1.504;2022-07-15T14:53:39;40.90;42.20
34766;DHT22;20984;43.508;1.504;2022-07-15T14:56:05;41.60;42.60
34766;DHT22;20984;43.508;1.504;2022-07-15T14:58:31;42.40;42.40
34766;DHT22;20984;43.508;1.504;2022-07-15T15:00:57;42.80;39.30
34766;DHT22;20984;43.508;1.504;2022-07-15T15:03:23;42.80;40.80
34766;DHT22;20984;43.508;1.504;2022-07-15T15:05:49;43.30;39.70
34766;DHT22;20984;43.508;1.504;2022-07-15T15:08:15;41.80;39.70
34766;DHT22;20984;43.508;1.504;2022-07-15T15:10:41;41.20;39.90
34766;DHT22;20984;43.508;1.504;2022-07-15T15:13:08;41.30;40.20
34766;DHT22;20984;43.508;1.504;2022-07-15T15:15:35;41.50;40.50
34766;DHT22;20984;43.508;1.504;2022-07-15T15:18:01;42.10;41.60
34766;DHT22;20984;43.508;1.504;2022-07-15T15:20:27;42.10;40.40
34766;DHT22;20984;43.508;1.504;2022-07-15T15:22:53;42.40;40.80
34766;DHT22;20984;43.508;1.504;2022-07-15T15:25:19;42.40;41.00
34766;DHT22;20984;43.508;1.504;2022-07-15T15:28:05;42.20;41.00
34766;DHT22;20984;43.508;1.504;2022-07-15T15:30:32;42.10;41.00
34766;DHT22;20984;43.508;1.504;2022-07-15T15:32:58;42.00;40.70
34766;DHT22;20984;43.508;1.504;2022-07-15T15:35:24;42.40;41.20
34766;DHT22;20984;43.508;1.504;2022-07-15T15:37:50;42.80;39.90
34766;DHT22;20984;43.508;1.504;2022-07-15T15:40:16;42.70;39.80
34766;DHT22;20984;43.508;1.504;2022-07-15T15:42:42;43.00;39.90
34766;DHT22;20984;43.508;1.504;2022-07-15T15:45:09;43.60;40.30
34766;DHT22;20984;43.508;1.504;2022-07-15T15:47:35;44.20;39.40
34766;DHT22;20984;43.508;1.504;2022-07-15T15:50:00;44.00;38.80
34766;DHT22;20984;43.508;1.504;2022-07-15T15:52:26;43.90;38.60
34766;DHT22;20984;43.508;1.504;2022-07-15T15:54:52;43.90;39.70
34766;DHT22;20984;43.508;1.504;2022-07-15T15:57:18;44.70;40.20
34766;DHT22;20984;43.508;1.504;2022-07-15T15:59:44;44.50;37.70
34766;DHT22;20984;43.508;1.504;2022-07-15T16:02:10;45.10;38.10
34766;DHT22;20984;43.508;1.504;2022-07-15T16:04:36;45.70;38.00
34766;DHT22;20984;43.508;1.504;2022-07-15T16:07:02;45.20;36.30
34766;DHT22;20984;43.508;1.504;2022-07-15T16:09:28;45.20;37.20
34766;DHT22;20984;43.508;1.504;2022-07-15T16:11:54;44.60;36.60